Le Claire, Iowa
Current Conditions -  °F | °C
As of 2:52 PM on Thursday 20 Nov 2014 (Local Time) from KDVN Reporting Station
Clear Clear  
Wind Chill: 13°   Ceiling: Unl
Heat Index: 26°   Visibility: 10mi
Dew Point:   Wind: 18mph
Humidity: 43%   Direction: 300°WNW
Pressure: 30.17"   Gusts: NA
Location:  41.6°N, 90.35°W
Report Text: KDVN 202052Z AUTO 30016KT 10SM CLR M03/M14 A3017 RMK AO2 SLP228 T10331144 53002
Loading
Personal Weather Stations






























Interactive Weather Map New forecast layout! Learn more

10-Day Weather Forecast

Advertisements
Track Severe Weather on mobile